Station Historical Data
Daily Summary for February 12, 2019 Units:  Metric    English   Both
« Previous Day
Next Day »
Daily Weekly Monthly Yearly Custom
  High: Low: Average:
Temperature: -17.8 °C 3.1 °C 11.1 °C
Dew Point: -17.8 °C -0.3 °C 9.4 °C
Humidity: Humidity % 74 % 89 %
Wind Speed: 0 km/h 0 km/h 7.6 km/h
Wind Gust: 0 km/h - -
Wind:- - SW
Pressure: 0 hPa 1006.3 hPa -
Precipitation: 20.32 mm    
Historical Graphs
 
 
Tabular Data for February 12, 2019
Time Temperature Dew Point Pressure Wind Wind Speed Wind Gust Humidity Rainfall Rate (Hourly) solar Conditions
-17.8 °C -17.8 °C 0 hPa Calm     Humidity % 0 mm SolarRadiationWatts/m^2 W/m2 Conditions
00:04 14.8 °C 14.2 °C 1009.7 hPa South 9.7 km/h 4 km/h 96 % 0 mm 0.00 W/m2 RA
00:09 14.8 °C 14.2 °C 1009.7 hPa ESE 5.6 km/h 9.3 km/h 96 % 0 mm 0.00 W/m2 RA
00:14 14.8 °C 14.2 °C 1009.7 hPa ESE 11.1 km/h 7.2 km/h 96 % 0 mm 0.00 W/m2 OVC
00:19 14.9 °C 14.3 °C 1009.7 hPa SE 11.1 km/h 7.2 km/h 96 % 0 mm 0.00 W/m2 OVC
00:24 14.9 °C 14.3 °C 1009.7 hPa SSE 13 km/h 5.8 km/h 96 % 0 mm 0.00 W/m2 OVC
00:29 14.9 °C 14.3 °C 1009.4 hPa ESE 9.7 km/h 7.7 km/h 96 % 0 mm 0.00 W/m2 OVC
00:34 14.9 °C 14.3 °C 1009.7 hPa SE 13 km/h 7.1 km/h 96 % 0 mm 0.00 W/m2 OVC
00:39 15 °C 14.4 °C 1009.4 hPa SE 11.3 km/h 6.6 km/h 96 % 0 mm 0.00 W/m2 OVC
00:44 15.1 °C 14.4 °C 1009 hPa SE 11.1 km/h 7.2 km/h 96 % 0 mm 0.00 W/m2 OVC
00:49 15.1 °C 14.4 °C 1009 hPa ESE 11.1 km/h 6 km/h 96 % 0 mm 0.00 W/m2 OVC
00:54 15.1 °C 14.4 °C 1009 hPa SSE 16.7 km/h 8.5 km/h 96 % 0 mm 0.00 W/m2 OVC
00:59 15.1 °C 14.5 °C 1009 hPa SE 13 km/h 9 km/h 96 % 0 mm 0.00 W/m2 OVC
01:04 15.2 °C 14.6 °C 1008.7 hPa SE 14.8 km/h 7.7 km/h 96 % 0 mm 0.00 W/m2 OVC
01:09 15.2 °C 14.6 °C 1008.7 hPa SE 16.7 km/h 10.1 km/h 96 % 0 mm 0.00 W/m2 OVC
01:14 15.3 °C 14.7 °C 1008.7 hPa ESE 11.3 km/h 8.7 km/h 96 % 0 mm 0.00 W/m2 OVC
01:19 15.3 °C 14.7 °C 1008.4 hPa ESE 13 km/h 7.9 km/h 96 % 0 mm 0.00 W/m2 OVC
01:24 15.3 °C 14.6 °C 1008.4 hPa SSE 16.7 km/h 7.9 km/h 95 % 0 mm 0.00 W/m2 OVC
01:29 15.4 °C 14.6 °C 1008.4 hPa SE 18.5 km/h 10.9 km/h 95 % 0 mm 0.00 W/m2 OVC
01:34 15.4 °C 14.8 °C 1008.4 hPa SE 16.7 km/h 12.2 km/h 96 % 0 mm 0.00 W/m2 OVC
01:39 15.5 °C 14.7 °C 1008.4 hPa SE 19.3 km/h 7.7 km/h 95 % 0 mm 0.00 W/m2 OVC
01:44 15.6 °C 14.8 °C 1008 hPa SE 8 km/h 5.3 km/h 95 % 0 mm 0.00 W/m2 OVC
01:49 15.6 °C 14.8 °C 1007.7 hPa SE 16.7 km/h 7.9 km/h 95 % 0 mm 0.00 W/m2 OVC
01:54 15.6 °C 14.8 °C 1008 hPa SSE 11.1 km/h 6.8 km/h 95 % 0 mm 0.00 W/m2 OVC
01:59 15.7 °C 14.9 °C 1008 hPa SSE 13 km/h 8.4 km/h 95 % 0 mm 0.00 W/m2 OVC
02:04 15.7 °C 14.9 °C 1008 hPa SE 9.3 km/h 5.6 km/h 95 % 0 mm 0.00 W/m2 OVC
02:09 15.8 °C 15 °C 1007.7 hPa SE 14.8 km/h 9.7 km/h 95 % 0 mm 0.00 W/m2 OVC
02:14 15.8 °C 14.9 °C 1007.7 hPa West 16.7 km/h 7.2 km/h 94 % 0 mm 0.00 W/m2 OVC
02:19 15.9 °C 14.9 °C 1007.7 hPa SSE 14.8 km/h 7.1 km/h 94 % 0 mm 0.00 W/m2 OVC
02:24 16 °C 15.1 °C 1007.7 hPa SE 13 km/h 9.3 km/h 94 % 0 mm 0.00 W/m2 OVC
02:29 16.1 °C 15.1 °C 1007.3 hPa SE 11.1 km/h 6.9 km/h 94 % 0 mm 0.00 W/m2 OVC
02:34 16.1 °C 15.1 °C 1007.3 hPa WSW 16.7 km/h 10 km/h 94 % 0 mm 0.00 W/m2 OVC
02:39 16.1 °C 15.1 °C 1007.3 hPa SSE 14.8 km/h 5.6 km/h 94 % 0.25 mm 0.00 W/m2 RA
02:44 16.1 °C 15.1 °C 1007.3 hPa ESE 9.3 km/h 3.1 km/h 94 % 0.25 mm 0.00 W/m2 RA
02:49 16.1 °C 15.1 °C 1007.3 hPa WNW 5.6 km/h 4.5 km/h 94 % 0.25 mm 0.00 W/m2 OVC
02:54 16.1 °C 15.3 °C 1007.3 hPa SE 9.3 km/h 7.2 km/h 95 % 0.51 mm 0.00 W/m2 RA
02:59 16 °C 15.2 °C 1007.3 hPa SE 11.1 km/h 5.3 km/h 95 % 0.51 mm 0.00 W/m2 RA
03:04 16.1 °C 15.3 °C 1007.3 hPa SE 14.8 km/h 8.9 km/h 95 % 0.76 mm 0.00 W/m2 RA
03:09 16.1 °C 15.3 °C 1007 hPa SE 11.1 km/h 5.1 km/h 95 % 1.02 mm 0.00 W/m2 RA
03:14 16.1 °C 15.3 °C 1007 hPa SSE 9.7 km/h 3.9 km/h 95 % 1.27 mm 0.00 W/m2 RA
03:19 16.1 °C 15.3 °C 1006.7 hPa SE 5.6 km/h 2.6 km/h 95 % 1.52 mm 0.00 W/m2 RA
03:24 16.1 °C 15.4 °C 1006.7 hPa SE 9.3 km/h 6.1 km/h 96 % 1.52 mm 0.00 W/m2 RA
03:29 16.1 °C 15.4 °C 1006.7 hPa SE 11.1 km/h 2.3 km/h 96 % 1.52 mm 0.00 W/m2 OVC
03:34 16.1 °C 15.4 °C 1006.7 hPa SSE 13 km/h 4.5 km/h 96 % 1.78 mm 0.00 W/m2 RA
03:39 16.1 °C 15.5 °C 1006.7 hPa SE 8 km/h 2.7 km/h 96 % 1.52 mm 0.00 W/m2 RA
03:44 16.2 °C 15.6 °C 1006.7 hPa SSE 7.4 km/h 1.6 km/h 96 % 1.52 mm 0.00 W/m2 OVC
03:49 16.2 °C 15.6 °C 1006.7 hPa WNW 7.4 km/h 2.7 km/h 96 % 1.52 mm 0.00 W/m2 OVC
03:54 16.2 °C 15.6 °C 1006.7 hPa WSW 7.4 km/h 3.9 km/h 96 % 1.27 mm 0.00 W/m2 OVC
03:59 16.3 °C 15.7 °C 1006.7 hPa SW 5.6 km/h 0.5 km/h 96 % 1.27 mm 0.00 W/m2 OVC
04:04 16.3 °C 15.7 °C 1006.7 hPa WSW 3.7 km/h 1.9 km/h 96 % 1.02 mm 0.00 W/m2 OVC
04:09 16.3 °C 15.7 °C 1006.7 hPa North 5.6 km/h 0.6 km/h 96 % 0.76 mm 0.00 W/m2 OVC
04:14 16.3 °C 15.7 °C 1006.7 hPa SW 3.7 km/h 1.4 km/h 96 % 0.51 mm 0.00 W/m2 OVC
04:19 16.3 °C 15.7 °C 1006.7 hPa West 5.6 km/h 2.6 km/h 96 % 0.25 mm 0.00 W/m2 OVC
04:24 16.4 °C 15.8 °C 1006.7 hPa SSE 9.3 km/h 2.6 km/h 96 % 0.25 mm 0.00 W/m2 OVC
04:29 16.4 °C 15.8 °C 1006.7 hPa SE 5.6 km/h 1.3 km/h 96 % 0.51 mm 0.00 W/m2 RA
04:34 16.4 °C 15.8 °C 1006.7 hPa WSW 13 km/h 5.1 km/h 96 % 0.25 mm 0.00 W/m2 RA
04:39 16.5 °C 15.8 °C 1006.3 hPa West 5.6 km/h 2.3 km/h 96 % 0.25 mm 0.00 W/m2 OVC
04:44 16.5 °C 15.8 °C 1007 hPa West 9.7 km/h 5.5 km/h 96 % 0.51 mm 0.00 W/m2 RA
04:49 16.1 °C 15.3 °C 1007 hPa West 13 km/h 7.6 km/h 95 % 4.32 mm 0.00 W/m2 RA
04:54 15.3 °C 14.4 °C 1006.3 hPa West 9.3 km/h 6.4 km/h 94 % 7.37 mm 0.00 W/m2 RA
04:59 14.8 °C 13.8 °C 1007.7 hPa SW 7.4 km/h 0.5 km/h 94 % 8.38 mm 0.00 W/m2 RA
05:04 14.6 °C 13.8 °C 1007.3 hPa WNW 6.4 km/h 3.7 km/h 95 % 8.89 mm 0.00 W/m2 RA
05:09 14.3 °C 13.6 °C 1007.7 hPa West 5.6 km/h 4 km/h 95 % 9.4 mm 0.00 W/m2 RA
05:14 14.2 °C 13.4 °C 1007.7 hPa West 3.7 km/h   95 % 9.91 mm 0.00 W/m2 RA
05:19 14.2 °C 13.6 °C 1007.7 hPa Calm     96 % 10.16 mm 0.00 W/m2 RA
05:24 14.1 °C 13.4 °C 1008 hPa Calm     96 % 10.41 mm 0.00 W/m2 RA
05:29 14 °C 13.4 °C 1008 hPa Calm     96 % 10.16 mm 0.00 W/m2 RA
05:34 13.9 °C 13.3 °C 1008 hPa Calm     96 % 10.41 mm 0.00 W/m2 RA
05:39 13.9 °C 13.3 °C 1008 hPa Calm     96 % 10.67 mm 0.00 W/m2 RA
05:44 13.9 °C 13.3 °C 1008 hPa Calm     96 % 10.92 mm 0.00 W/m2 RA
05:49 13.9 °C 13.3 °C 1008 hPa SSW 3.7 km/h 2.1 km/h 96 % 7.11 mm 0.00 W/m2 RA
05:54 13.8 °C 13.4 °C 1008 hPa South 3.2 km/h 0.5 km/h 97 % 4.06 mm 0.00 W/m2 OVC
05:59 13.8 °C 13.4 °C 1008 hPa WSW 1.6 km/h 0.2 km/h 97 % 3.3 mm 0.00 W/m2 RA
06:04 13.8 °C 13.4 °C 1008 hPa South 1.9 km/h 0.3 km/h 97 % 2.79 mm 0.00 W/m2 RA
06:09 13.8 °C 13.4 °C 1008 hPa South 3.7 km/h 1.6 km/h 97 % 2.29 mm 0.00 W/m2 OVC
06:14 13.8 °C 13.4 °C 1008 hPa SSE 5.6 km/h 1.6 km/h 97 % 2.03 mm 0.00 W/m2 RA
06:19 13.8 °C 13.3 °C 1008 hPa SSE 3.7 km/h 0.6 km/h 97 % 1.78 mm 0.00 W/m2 RA
06:24 13.8 °C 13.3 °C 1007.7 hPa Calm     97 % 1.52 mm 0.00 W/m2 OVC
06:29 13.8 °C 13.3 °C 1007.7 hPa Calm     97 % 1.52 mm 0.00 W/m2 OVC
06:34 13.7 °C 13.3 °C 1007.3 hPa Calm     97 % 1.52 mm 0.00 W/m2 RA
06:39 13.7 °C 13.3 °C 1007.3 hPa SSE 5.6 km/h 1.9 km/h 97 % 1.27 mm 0.00 W/m2 RA
06:44 13.7 °C 13.2 °C 1007.3 hPa SE 3.7 km/h 1.9 km/h 97 % 1.02 mm 0.00 W/m2 RA
06:49 13.6 °C 13.2 °C 1007.7 hPa Calm     97 % 1.02 mm 0.00 W/m2 RA
06:54 13.6 °C 13.2 °C 1007.7 hPa SE 4.8 km/h 0.8 km/h 97 % 1.02 mm 0.00 W/m2 OVC
06:59 13.6 °C 13.1 °C 1007.7 hPa SE 8 km/h 3.5 km/h 97 % 1.02 mm 0.00 W/m2 RA
07:04 13.6 °C 13.1 °C 1008 hPa SSE 3.7 km/h 0.5 km/h 97 % 1.02 mm 0.00 W/m2 RA
07:09 13.5 °C 13.1 °C 1008 hPa WSW 5.6 km/h 1.9 km/h 97 % 1.27 mm 0.00 W/m2 RA
07:14 13.5 °C 13.1 °C 1008 hPa SSE 5.6 km/h 2.4 km/h 97 % 1.27 mm 5.00 W/m2 RA
07:19 13.5 °C 13.1 °C 1008 hPa ESE 1.6 km/h 0.3 km/h 97 % 1.27 mm 5.00 W/m2 RA
07:24 13.4 °C 13 °C 1008 hPa SSE 3.7 km/h 0.3 km/h 97 % 1.52 mm 5.00 W/m2 RA
07:29 13.4 °C 13 °C 1008 hPa SSE 3.7 km/h 1.9 km/h 97 % 1.52 mm 5.00 W/m2 RA
07:34 13.4 °C 12.9 °C 1008.4 hPa SSE 5.6 km/h 2.3 km/h 97 % 1.52 mm 5.00 W/m2 RA
07:39 13.3 °C 12.9 °C 1007.7 hPa SE 5.6 km/h 2.4 km/h 97 % 1.78 mm 7.00 W/m2 RA
07:44 13.3 °C 12.9 °C 1008 hPa SSE 5.6 km/h 2.3 km/h 97 % 2.03 mm 7.00 W/m2 RA
07:49 13.3 °C 12.9 °C 1008 hPa Calm     97 % 2.29 mm 9.00 W/m2 RA
07:54 13.3 °C 12.9 °C 1008.4 hPa SE 5.6 km/h 1 km/h 97 % 2.79 mm 11.00 W/m2 RA
07:59 13.3 °C 12.8 °C 1008.4 hPa SE 5.6 km/h 2.1 km/h 97 % 2.79 mm 11.00 W/m2 RA
08:04 13.3 °C 12.9 °C 1008.4 hPa SSE 1.9 km/h 1.3 km/h 98 % 3.05 mm 12.00 W/m2 RA
08:09 13.2 °C 12.9 °C 1008.4 hPa SSE 5.6 km/h 1.3 km/h 98 % 3.05 mm 14.00 W/m2 RA
08:14 13.2 °C 12.9 °C 1008.4 hPa SSE 3.7 km/h 2.3 km/h 98 % 2.79 mm 16.00 W/m2 RA
08:19 13.2 °C 12.9 °C 1008.4 hPa SE 5.6 km/h 4.3 km/h 98 % 2.79 mm 14.00 W/m2 OVC
08:24 13.2 °C 12.9 °C 1008.7 hPa SSE 5.6 km/h 2.4 km/h 98 % 2.79 mm 19.00 W/m2 RA
08:29 13.2 °C 12.9 °C 1008.7 hPa SE 5.6 km/h 5.8 km/h 98 % 3.05 mm 23.00 W/m2 RA
08:34 13.2 °C 12.8 °C 1008.4 hPa SSE 6.4 km/h 3.5 km/h 97 % 2.79 mm 25.00 W/m2 RA
08:39 13.2 °C 12.8 °C 1008.4 hPa SSE 7.4 km/h 2.4 km/h 97 % 2.79 mm 23.00 W/m2 RA
08:44 13.2 °C 12.8 °C 1008 hPa SE 7.4 km/h 2.1 km/h 97 % 2.54 mm 25.00 W/m2 RA
08:49 13.2 °C 12.8 °C 1008 hPa SSW 5.6 km/h 2.3 km/h 97 % 2.29 mm 32.00 W/m2 RA
08:54 13.2 °C 12.8 °C 1008 hPa SE 3.7 km/h 0.2 km/h 97 % 1.78 mm 32.00 W/m2 OVC
08:59 13.2 °C 12.7 °C 1008 hPa SSE 3.7 km/h 2.3 km/h 97 % 1.52 mm 26.00 W/m2 OVC
09:04 13.2 °C 12.7 °C 1008.4 hPa Calm     97 % 1.52 mm 28.00 W/m2 RA
09:09 13.2 °C 12.7 °C 1008.4 hPa SSE 5.6 km/h 1.9 km/h 97 % 1.27 mm 28.00 W/m2 RA
09:14 13.2 °C 12.8 °C 1008.4 hPa SE 5.6 km/h 1.1 km/h 98 % 1.52 mm 32.00 W/m2 RA
09:19 13.2 °C 12.8 °C 1008.4 hPa South 5.6 km/h 1.6 km/h 98 % 1.52 mm 28.00 W/m2 RA
09:24 13.2 °C 12.8 °C 1008 hPa SSE 5.6 km/h 4 km/h 98 % 1.27 mm 40.00 W/m2 OVC
09:29 13.2 °C 12.8 °C 1008 hPa SE 5.6 km/h 3.1 km/h 98 % 1.27 mm 37.00 W/m2 RA
09:34 13.2 °C 12.8 °C 1007.3 hPa ESE 5.6 km/h 4.5 km/h 98 % 1.27 mm 33.00 W/m2 RA
09:39 13.2 °C 12.8 °C 1008 hPa SW 7.4 km/h 4 km/h 98 % 1.02 mm 32.00 W/m2 OVC
09:44 13.2 °C 12.8 °C 1008 hPa South 5.6 km/h 2.7 km/h 98 % 0.76 mm 18.00 W/m2 OVC
09:49 13.2 °C 12.8 °C 1008 hPa South 5.6 km/h 3.2 km/h 98 % 0.76 mm 26.00 W/m2 OVC
09:54 13.2 °C 12.8 °C 1008 hPa SW 3.7 km/h 1.6 km/h 98 % 1.02 mm 39.00 W/m2 RA
09:59 13.2 °C 12.8 °C 1007.7 hPa SSE 5.6 km/h 3.2 km/h 98 % 1.02 mm 12.00 W/m2 RA
10:04 13.2 °C 12.8 °C 1008 hPa South 5.6 km/h 0.6 km/h 98 % 0.76 mm 49.00 W/m2 OVC
10:09 13.2 °C 12.9 °C 1008 hPa SSW 5.6 km/h 2.3 km/h 98 % 0.76 mm 32.00 W/m2 OVC
10:14 13.2 °C 12.9 °C 1008 hPa South 8 km/h 4.5 km/h 98 % 0.51 mm 42.00 W/m2 OVC
10:19 13.2 °C 12.9 °C 1008.4 hPa WSW 7.4 km/h 2.3 km/h 98 % 0.51 mm 33.00 W/m2 OVC
10:24 13.3 °C 12.9 °C 1008 hPa South 5.6 km/h 0.6 km/h 98 % 0.51 mm 28.00 W/m2 OVC
10:29 13.3 °C 12.9 °C 1008 hPa SSE 7.4 km/h 3.5 km/h 98 % 0.25 mm 46.00 W/m2 OVC
10:34 13.3 °C 12.9 °C 1008.4 hPa SSE 6.4 km/h 2.6 km/h 98 % 0.25 mm 37.00 W/m2 OVC
10:39 13.3 °C 13 °C 1008.4 hPa South 5.6 km/h 2.4 km/h 98 % 0.25 mm 30.00 W/m2 OVC
10:44 13.3 °C 13 °C 1008.4 hPa SSE 4.8 km/h 2.9 km/h 98 % 0.25 mm 18.00 W/m2 OVC
10:49 13.3 °C 13 °C 1008.4 hPa SE 5.6 km/h 3.7 km/h 98 % 0.25 mm 25.00 W/m2 OVC
10:54 13.3 °C 13 °C 1008.4 hPa SSW 7.4 km/h 3.9 km/h 98 % 0 mm 56.00 W/m2 OVC
10:59 13.3 °C 13 °C 1008 hPa West 11.1 km/h 6.1 km/h 98 % 0 mm 51.00 W/m2 OVC
11:04 13.4 °C 13.1 °C 1007.7 hPa West 5.6 km/h 2.6 km/h 98 % 0 mm 51.00 W/m2 OVC
11:09 13.4 °C 13.1 °C 1007.7 hPa West 9.3 km/h 3.5 km/h 98 % 0 mm 60.00 W/m2 OVC
11:14 13.5 °C 13.2 °C 1007.7 hPa South 5.6 km/h 4.2 km/h 98 % 0 mm 65.00 W/m2 OVC
11:19 13.6 °C 13.2 °C 1007.7 hPa ESE 11.3 km/h 3.2 km/h 98 % 0 mm 98.00 W/m2 OVC
11:24 13.6 °C 13.3 °C 1007.7 hPa WSW 11.1 km/h 5.5 km/h 98 % 0 mm 88.00 W/m2 OVC
11:29 13.7 °C 13.3 °C 1007.7 hPa SSW 9.7 km/h 4.2 km/h 98 % 0 mm 83.00 W/m2 OVC
11:34 13.7 °C 13.4 °C 1007.3 hPa West 5.6 km/h 2.1 km/h 98 % 0 mm 83.00 W/m2 OVC
11:39 13.8 °C 13.4 °C 1007.3 hPa SSE 3.7 km/h 1.9 km/h 98 % 0 mm 86.00 W/m2 OVC
11:44 13.8 °C 13.5 °C 1007.3 hPa West 7.4 km/h 3.2 km/h 98 % 0 mm 102.00 W/m2 OVC
11:49 13.8 °C 13.5 °C 1007.3 hPa SSE 9.3 km/h 7.1 km/h 98 % 0 mm 72.00 W/m2 OVC
11:54 13.8 °C 13.5 °C 1007 hPa West 5.6 km/h 2.3 km/h 98 % 0 mm 97.00 W/m2 OVC
11:59 13.9 °C 13.6 °C 1007.3 hPa West 7.4 km/h 2.9 km/h 98 % 0 mm 84.00 W/m2 OVC
12:04 13.9 °C 13.6 °C 1007.3 hPa West 5.6 km/h 5.1 km/h 98 % 0 mm 40.00 W/m2 OVC
12:09 13.9 °C 13.6 °C 1007 hPa ESE 5.6 km/h 2.4 km/h 98 % 0 mm 62.00 W/m2 OVC
12:14 13.9 °C 13.6 °C 1007 hPa West 5.6 km/h 3.9 km/h 98 % 0 mm 35.00 W/m2 OVC
12:19 13.9 °C 13.6 °C 1007 hPa WSW 5.6 km/h 2.3 km/h 98 % 0 mm 37.00 W/m2 OVC
12:24 13.9 °C 13.6 °C 1007 hPa WNW 5.6 km/h 3.5 km/h 98 % 0 mm 37.00 W/m2 OVC
12:29 13.9 °C 13.6 °C 1007.3 hPa SE 5.6 km/h 3.7 km/h 98 % 0.25 mm 35.00 W/m2 RA
12:34 13.9 °C 13.6 °C 1007.3 hPa West 11.3 km/h 3.9 km/h 98 % 0.51 mm 25.00 W/m2 RA
12:39 13.8 °C 13.4 °C 1007 hPa WSW 9.3 km/h 3.2 km/h 97 % 0.51 mm 21.00 W/m2 RA
12:44 13.8 °C 13.4 °C 1007.3 hPa WSW 7.4 km/h 5.1 km/h 97 % 0.51 mm 28.00 W/m2 OVC
12:49 13.8 °C 13.3 °C 1007.3 hPa NW 9.3 km/h 5.6 km/h 97 % 0.51 mm 35.00 W/m2 OVC
12:54 13.8 °C 13.3 °C 1007 hPa SW 11.1 km/h 7.2 km/h 97 % 0.51 mm 44.00 W/m2 OVC
12:59 13.7 °C 13.3 °C 1007 hPa West 9.7 km/h 4.8 km/h 97 % 0.51 mm 47.00 W/m2 OVC
13:04 13.7 °C 13.3 °C 1007.3 hPa WSW 9.3 km/h 5.8 km/h 97 % 0.51 mm 62.00 W/m2 OVC
13:09 13.7 °C 13.3 °C 1007.3 hPa WSW 11.1 km/h 5.6 km/h 97 % 0.51 mm 93.00 W/m2 OVC
13:14 13.8 °C 13.3 °C 1007 hPa South 9.3 km/h 5.1 km/h 97 % 0.51 mm 102.00 W/m2 OVC
13:19 13.8 °C 13.3 °C 1007.3 hPa WSW 7.4 km/h 3.7 km/h 97 % 0.51 mm 76.00 W/m2 OVC
13:24 13.7 °C 13.3 °C 1007.3 hPa WSW 13 km/h 8.4 km/h 97 % 0.51 mm 97.00 W/m2 OVC
13:29 13.7 °C 13.2 °C 1007.3 hPa West 14.5 km/h 7.7 km/h 97 % 0.25 mm 25.00 W/m2 OVC
13:34 13.6 °C 13 °C 1007.7 hPa West 16.7 km/h 10.8 km/h 96 % 0 mm 19.00 W/m2 OVC
13:39 13.4 °C 12.7 °C 1008 hPa SW 18.5 km/h 8.7 km/h 95 % 0 mm 58.00 W/m2 OVC
13:44 13.4 °C 12.6 °C 1008 hPa West 14.8 km/h 6.3 km/h 95 % 0 mm 62.00 W/m2 OVC
13:49 13.2 °C 12.4 °C 1008.4 hPa WSW 14.5 km/h 7.9 km/h 95 % 0 mm 118.00 W/m2 OVC
13:54 13 °C 12.1 °C 1008.4 hPa West 14.8 km/h 10.5 km/h 94 % 0 mm 114.00 W/m2 OVC
13:59 12.8 °C 11.7 °C 1008.4 hPa WSW 18.5 km/h 10.1 km/h 93 % 0 mm 93.00 W/m2 OVC
14:04 12.7 °C 11.4 °C 1008.7 hPa West 13 km/h 10.5 km/h 92 % 0 mm 128.00 W/m2 OVC
14:09 12.7 °C 11.4 °C 1008.7 hPa West 14.8 km/h 10.3 km/h 92 % 0 mm 144.00 W/m2 OVC
14:14 12.7 °C 11.1 °C 1009 hPa WNW 18.5 km/h 12.2 km/h 90 % 0 mm 141.00 W/m2 OVC
14:19 12.6 °C 10.8 °C 1009 hPa WNW 16.7 km/h 11.7 km/h 89 % 0 mm 118.00 W/m2 OVC
14:24 12.5 °C 10.4 °C 1009.4 hPa West 17.7 km/h 13.5 km/h 87 % 0 mm 76.00 W/m2 OVC
14:29 12.4 °C 10.1 °C 1009.7 hPa WSW 18.5 km/h 13 km/h 86 % 0 mm 44.00 W/m2 OVC
14:34 12.3 °C 10.2 °C 1010 hPa West 18.5 km/h 9.8 km/h 87 % 0 mm 28.00 W/m2 OVC
14:39 12.2 °C 10.1 °C 1010.4 hPa West 18.5 km/h 14 km/h 87 % 0 mm 25.00 W/m2 OVC
14:45 11.9 °C 9.7 °C 1010.4 hPa West 20.4 km/h 14.8 km/h 86 % 0 mm 42.00 W/m2 OVC
14:49 11.7 °C 9.4 °C 1010.4 hPa West 18.5 km/h 14 km/h 86 % 0 mm 69.00 W/m2 OVC
14:54 11.6 °C 9.2 °C 1010.7 hPa WNW 20.4 km/h 15.8 km/h 85 % 0 mm 125.00 W/m2 OVC
14:59 11.4 °C 9 °C 1010.7 hPa WNW 20.4 km/h 14 km/h 85 % 0 mm 151.00 W/m2 OVC
15:04 11.3 °C 8.6 °C 1011.1 hPa West 18.5 km/h 15.8 km/h 83 % 0 mm 127.00 W/m2 OVC
15:09 11.2 °C 8.3 °C 1011.4 hPa WSW 14.8 km/h 10 km/h 82 % 0 mm 121.00 W/m2 OVC
15:14 11.1 °C 8.1 °C 1011.4 hPa West 18.5 km/h 10.5 km/h 82 % 0 mm 72.00 W/m2 OVC
15:19 10.9 °C 8.1 °C 1011.7 hPa West 11.3 km/h 7.9 km/h 83 % 0 mm 40.00 W/m2 OVC
15:24 10.7 °C 7.7 °C 1012.1 hPa WNW 13 km/h 10.8 km/h 82 % 0 mm 28.00 W/m2 OVC
15:29 10.4 °C 7.5 °C 1012.4 hPa West 22.2 km/h 12.1 km/h 82 % 0 mm 42.00 W/m2 OVC
15:34 10.3 °C 7.5 °C 1012.4 hPa WSW 14.8 km/h 6.8 km/h 83 % 0 mm 65.00 W/m2 OVC
15:39 10.2 °C 7.2 °C 1012.8 hPa WNW 14.8 km/h 11.3 km/h 82 % 0 mm 77.00 W/m2 OVC
15:44 10 °C 6.7 °C 1013.1 hPa WSW 16.7 km/h 9.8 km/h 80 % 0 mm 79.00 W/m2 OVC
15:49 9.9 °C 6.6 °C 1013.4 hPa NW 13 km/h 6.8 km/h 80 % 0 mm 51.00 W/m2 OVC
15:54 9.8 °C 6.6 °C 1013.4 hPa WNW 11.1 km/h 10.5 km/h 80 % 0 mm 46.00 W/m2 OVC
15:59 9.7 °C 6.4 °C 1013.4 hPa WNW 12.9 km/h 9.2 km/h 80 % 0 mm 74.00 W/m2 OVC
16:04 9.6 °C 6.1 °C 1013.8 hPa West 14.8 km/h 7.6 km/h 79 % 0 mm 67.00 W/m2 OVC
16:09 9.4 °C 6 °C 1014.1 hPa WNW 11.3 km/h 8.5 km/h 79 % 0 mm 65.00 W/m2 OVC
16:14 9.3 °C 5.6 °C 1014.1 hPa WNW 14.8 km/h 10.3 km/h 78 % 0 mm 60.00 W/m2 OVC
16:19 9.1 °C 5.1 °C 1014.1 hPa WNW 11.1 km/h 9.7 km/h 76 % 0 mm 56.00 W/m2 OVC
16:24 8.9 °C 4.9 °C 1014.1 hPa WNW 16.7 km/h 11.9 km/h 76 % 0 mm 49.00 W/m2 OVC
16:29 8.7 °C 4.3 °C 1014.4 hPa West 18.5 km/h 10.5 km/h 74 % 0 mm 42.00 W/m2 OVC
16:34 8.6 °C 4.4 °C 1014.4 hPa NW 14.8 km/h 10.6 km/h 75 % 0 mm 33.00 W/m2 OVC
16:39 8.4 °C 4.4 °C 1014.8 hPa West 13 km/h 5.5 km/h 76 % 0 mm 33.00 W/m2 OVC
16:44 8.3 °C 4.5 °C 1015.1 hPa WNW 9.3 km/h 5.3 km/h 77 % 0 mm 32.00 W/m2 OVC
16:49 8.2 °C 4.6 °C 1015.1 hPa West 5.6 km/h 5 km/h 78 % 0 mm 28.00 W/m2 OVC
16:54 8.1 °C 4.4 °C 1015.5 hPa West 9.3 km/h 5.1 km/h 78 % 0 mm 23.00 W/m2 OVC
16:59 8 °C 4.4 °C 1015.5 hPa West 11.1 km/h 5.8 km/h 78 % 0 mm 19.00 W/m2 OVC
17:04 7.9 °C 4.3 °C 1015.5 hPa West 9.3 km/h 5.6 km/h 78 % 0 mm 14.00 W/m2 OVC
17:09 7.8 °C 3.7 °C 1015.5 hPa West 16.7 km/h 7.7 km/h 75 % 0 mm 11.00 W/m2 OVC
17:15 7.8 °C 3.8 °C 1015.5 hPa WNW 5.6 km/h 5.3 km/h 76 % 0 mm 7.00 W/m2 OVC
17:19 7.7 °C 3.9 °C 1015.5 hPa West 5.6 km/h 5 km/h 77 % 0 mm 5.00 W/m2 OVC
17:24 7.6 °C 3.8 °C 1015.8 hPa West 5.6 km/h 4.5 km/h 77 % 0 mm 0.00 W/m2 OVC
17:29 7.4 °C 3.5 °C 1015.8 hPa West 16.7 km/h 9 km/h 76 % 0 mm 0.00 W/m2 OVC
17:34 7.3 °C 3.4 °C 1015.8 hPa WSW 5.6 km/h 4.7 km/h 76 % 0 mm 0.00 W/m2 OVC
17:39 7.3 °C 3.3 °C 1015.8 hPa WSW 5.6 km/h 4.2 km/h 76 % 0 mm 0.00 W/m2 OVC
17:44 7.2 °C 3.4 °C 1016.1 hPa West 9.7 km/h 5 km/h 77 % 0 mm 0.00 W/m2 OVC
17:49 7.2 °C 3.4 °C 1016.1 hPa West 5.6 km/h 5.8 km/h 77 % 0 mm 0.00 W/m2 OVC
17:54 7.1 °C 3.3 °C 1016.5 hPa West 5.6 km/h 3.7 km/h 77 % 0 mm 0.00 W/m2 OVC
17:59 7 °C 3.4 °C 1016.5 hPa West 7.4 km/h 5.5 km/h 78 % 0 mm 0.00 W/m2 OVC
18:04 6.9 °C 3.6 °C 1016.5 hPa WSW 5.6 km/h 4 km/h 79 % 0 mm 0.00 W/m2 OVC
18:09 6.8 °C 3.4 °C 1016.8 hPa West 5.6 km/h 4 km/h 79 % 0 mm 0.00 W/m2 OVC
18:14 6.8 °C 3.4 °C 1016.8 hPa West 5.6 km/h 3.9 km/h 79 % 0 mm 0.00 W/m2 OVC
18:19 6.7 °C 3.3 °C 1016.8 hPa WSW 5.6 km/h 4.3 km/h 79 % 0 mm 0.00 W/m2 OVC
18:24 6.6 °C 3.4 °C 1017.2 hPa WSW 5.6 km/h 3.1 km/h 80 % 0 mm 0.00 W/m2 OVC
18:29 6.6 °C 3.3 °C 1017.2 hPa WSW 5.6 km/h 3.4 km/h 80 % 0 mm 0.00 W/m2 OVC
18:34 6.4 °C 3.2 °C 1017.2 hPa West 6.4 km/h 5.1 km/h 80 % 0 mm 0.00 W/m2 OVC
18:39 6.4 °C 3.1 °C 1017.2 hPa West 5.6 km/h 4.5 km/h 79 % 0 mm 0.00 W/m2 OVC
18:44 6.4 °C 3.2 °C 1017.2 hPa West 5.6 km/h 3.2 km/h 80 % 0 mm 0.00 W/m2 OVC
18:49 6.3 °C 3.3 °C 1017.5 hPa WSW 5.6 km/h 2.4 km/h 81 % 0 mm 0.00 W/m2 OVC
18:54 6.3 °C 3.3 °C 1017.5 hPa Calm     81 % 0 mm 0.00 W/m2 OVC
18:59 6.2 °C 3.2 °C 1017.8 hPa WSW 3.7 km/h 0.8 km/h 81 % 0 mm 0.00 W/m2 OVC
19:04 6.2 °C 3.2 °C 1017.8 hPa Calm     81 % 0 mm 0.00 W/m2 OVC
19:09 6.1 °C 3.1 °C 1018.2 hPa WSW 3.7 km/h 2.7 km/h 81 % 0 mm 0.00 W/m2 OVC
19:14 5.9 °C 3.1 °C 1018.2 hPa WSW 3.7 km/h 2.7 km/h 82 % 0 mm 0.00 W/m2 OVC
19:19 5.8 °C 3.1 °C 1018.2 hPa WSW 3.7 km/h   83 % 0 mm 0.00 W/m2 OVC
19:24 5.7 °C 3.1 °C 1018.5 hPa Calm     83 % 0 mm 0.00 W/m2 OVC
19:29 5.6 °C 2.9 °C 1018.5 hPa Calm     83 % 0 mm 0.00 W/m2 OVC
19:34 5.5 °C 3 °C 1018.2 hPa Calm     84 % 0 mm 0.00 W/m2 OVC
19:39 5.4 °C 2.9 °C 1018.5 hPa Calm     84 % 0 mm 0.00 W/m2 OVC
19:44 5.4 °C 2.9 °C 1018.5 hPa Calm     84 % 0 mm 0.00 W/m2 OVC
19:49 5.3 °C 3 °C 1018.5 hPa Calm     85 % 0 mm 0.00 W/m2 OVC
19:54 5.2 °C 2.9 °C 1018.8 hPa Calm     85 % 0 mm 0.00 W/m2 OVC
19:59 5.1 °C 2.6 °C 1018.8 hPa WSW 6.4 km/h 5.1 km/h 84 % 0 mm 0.00 W/m2 OVC
20:04 5.1 °C 2.4 °C 1018.8 hPa West 9.3 km/h 6.6 km/h 83 % 0 mm 0.00 W/m2 OVC
20:09 5.2 °C 2.2 °C 1019.2 hPa West 11.1 km/h 6.4 km/h 81 % 0 mm 0.00 W/m2 OVC
20:14 5.3 °C 1.9 °C 1019.5 hPa West 5.6 km/h 4.3 km/h 79 % 0 mm 0.00 W/m2 OVC
20:19 5.3 °C 1.8 °C 1019.5 hPa WNW 5.6 km/h 3.9 km/h 78 % 0 mm 0.00 W/m2 OVC
20:24 5.4 °C 2.1 °C 1019.5 hPa West 5.6 km/h 3.2 km/h 79 % 0 mm 0.00 W/m2 OVC
20:29 5.3 °C 2 °C 1019.9 hPa West 3.7 km/h 2.6 km/h 79 % 0 mm 0.00 W/m2 OVC
20:34 5.3 °C 1.9 °C 1019.9 hPa West 3.7 km/h 1.4 km/h 79 % 0 mm 0.00 W/m2 OVC
20:39 5.2 °C 1.8 °C 1019.9 hPa West 3.7 km/h 2.6 km/h 79 % 0 mm 0.00 W/m2 OVC
20:44 5.1 °C 1.6 °C 1019.9 hPa WSW 5.6 km/h 3.2 km/h 78 % 0 mm 0.00 W/m2 OVC
20:49 5.1 °C 1.6 °C 1020.2 hPa West 5.6 km/h 3.5 km/h 78 % 0 mm 0.00 W/m2 OVC
20:54 5 °C 1.7 °C 1019.9 hPa West 3.7 km/h 2.7 km/h 79 % 0 mm 0.00 W/m2 OVC
20:59 4.9 °C 1.4 °C 1019.9 hPa West 3.7 km/h 1.6 km/h 78 % 0 mm 0.00 W/m2 OVC
21:04 4.9 °C 1.6 °C 1019.9 hPa Calm     79 % 0 mm 0.00 W/m2 OVC
21:09 4.8 °C 1.5 °C 1019.9 hPa Calm     79 % 0 mm 0.00 W/m2 OVC
21:14 4.7 °C 1.4 °C 1020.2 hPa Calm     79 % 0 mm 0.00 W/m2 OVC
21:19 4.6 °C 1.3 °C 1020.2 hPa WSW 3.7 km/h 1.1 km/h 79 % 0 mm 0.00 W/m2 OVC
21:24 4.5 °C 1.2 °C 1020.2 hPa Calm     79 % 0 mm 0.00 W/m2 OVC
21:29 4.4 °C 0.9 °C 1020.5 hPa Calm     78 % 0 mm 0.00 W/m2 OVC
21:34 4.3 °C 1 °C 1020.5 hPa WSW 3.7 km/h 1.4 km/h 79 % 0 mm 0.00 W/m2 OVC
21:39 4.3 °C 0.9 °C 1020.5 hPa WSW 3.2 km/h 1.3 km/h 79 % 0 mm 0.00 W/m2 OVC
21:44 4.2 °C 0.7 °C 1020.5 hPa WSW 3.7 km/h 1.6 km/h 78 % 0 mm 0.00 W/m2 OVC
21:49 4.2 °C 0.7 °C 1020.5 hPa WSW 3.7 km/h 1.1 km/h 78 % 0 mm 0.00 W/m2 OVC
21:54 4.2 °C 0.7 °C 1020.5 hPa Calm     78 % 0 mm 0.00 W/m2 OVC
21:59 4.1 °C 0.6 °C 1020.5 hPa WSW 3.2 km/h 1.6 km/h 78 % 0 mm 0.00 W/m2 OVC
22:04 4.1 °C 0.4 °C 1020.5 hPa WSW 3.7 km/h 1.8 km/h 77 % 0 mm 0.00 W/m2 OVC
22:09 4 °C 0.3 °C 1020.5 hPa WSW 5.6 km/h 2.6 km/h 77 % 0 mm 0.00 W/m2 OVC
22:14 3.9 °C 0.3 °C 1020.5 hPa WSW 3.2 km/h 1.1 km/h 77 % 0 mm 0.00 W/m2 OVC
22:19 3.9 °C 0.3 °C 1020.2 hPa Calm     77 % 0 mm 0.00 W/m2 OVC
22:24 3.9 °C 0.2 °C 1020.2 hPa WSW 3.7 km/h 1.1 km/h 77 % 0 mm 0.00 W/m2 OVC
22:29 3.8 °C 0 °C 1020.2 hPa Calm     76 % 0 mm 0.00 W/m2 OVC
22:34 3.8 °C -0.1 °C 1020.2 hPa Calm     76 % 0 mm 0.00 W/m2 OVC
22:39 3.7 °C -0.1 °C 1020.2 hPa Calm     76 % 0 mm 0.00 W/m2 OVC
22:44 3.7 °C 0 °C 1020.2 hPa Calm     77 % 0 mm 0.00 W/m2 OVC
22:49 3.7 °C 0 °C 1020.2 hPa Calm     77 % 0 mm 0.00 W/m2 OVC
22:54 3.6 °C 0.1 °C 1020.2 hPa Calm     78 % 0 mm 0.00 W/m2 OVC
22:59 3.5 °C 0 °C 1020.2 hPa Calm     78 % 0 mm 0.00 W/m2 OVC
23:04 3.4 °C -0.1 °C 1020.2 hPa Calm     78 % 0 mm 0.00 W/m2 OVC
23:09 3.3 °C -0.2 °C 1020.2 hPa Calm     78 % 0 mm 0.00 W/m2 OVC
23:14 3.3 °C -0.2 °C 1020.2 hPa Calm     78 % 0 mm 0.00 W/m2 OVC
23:19 3.3 °C -0.2 °C 1020.5 hPa Calm     78 % 0 mm 0.00 W/m2 OVC
23:24 3.2 °C -0.2 °C 1020.5 hPa SW 5.6 km/h 2.3 km/h 78 % 0 mm 0.00 W/m2 OVC
23:29 3.2 °C -0.2 °C 1020.2 hPa SW 3.7 km/h 0.6 km/h 78 % 0 mm 0.00 W/m2 OVC
23:34 3.2 °C -0.3 °C 1020.5 hPa Calm     78 % 0 mm 0.00 W/m2 OVC
23:39 3.2 °C -0.3 °C 1020.5 hPa SSW 5.6 km/h 2.1 km/h 78 % 0 mm 0.00 W/m2 OVC
23:44 3.2 °C -0.3 °C 1020.5 hPa WSW 3.7 km/h 1 km/h 78 % 0 mm 0.00 W/m2 OVC
23:49 3.1 °C -0.3 °C 1020.5 hPa WSW 3.7 km/h   78 % 0 mm 0.00 W/m2 OVC
23:54 3.1 °C -0.3 °C 1020.5 hPa SW 3.7 km/h 1.8 km/h 78 % 0 mm 0.00 W/m2 OVC
23:59 3.1 °C -0.3 °C 1020.5 hPa SSW 3.7 km/h 1.1 km/h 78 % 0 mm 0.00 W/m2 OVC
Murfreesboro Weather Live
Compliments of Weather Underground - 2.25 mb